Time;durP1;ratioP1;P1;durP2;ratioP2;P2;SDS_P1;SDS_P2;PMS_P1;PMS_P2;Temp;Humidity;BMP_temperature;BMP_pressure;BME280_temperature;BME280_humidity;BME280_pressure;Samples;Min_cycle;Max_cycle;Signal;HPM_P1;HPM_P2
2021/04/28 00:02:08;;;;;;;12.77;6.07;;;;;;;13.77;57.81;99461.97;5101490;28;20028;-74
2021/04/28 00:04:34;;;;;;;10.68;6.00;;;;;;;13.61;57.89;99457.72;5098697;28;20086;-74
2021/04/28 00:07:03;;;;;;;12.18;5.80;;;;;;;13.57;57.72;99458.28;5099972;28;20040;-74
2021/04/28 00:09:30;;;;;;;11.05;5.55;;;;;;;13.40;58.81;99463.78;5102240;28;20323;-76
2021/04/28 00:11:57;;;;;;;11.18;6.25;;;;;;;13.39;59.01;99448.03;5100962;28;20353;-76
2021/04/28 00:14:22;;;;;;;9.52;5.90;;;;;;;13.51;58.29;99454.50;5100463;28;20385;-74
2021/04/28 00:16:48;;;;;;;14.73;6.72;;;;;;;13.41;58.46;99465.44;5099839;28;20046;-74
2021/04/28 00:19:13;;;;;;;12.82;6.18;;;;;;;13.32;58.77;99447.94;5100822;28;20061;-74
2021/04/28 00:21:39;;;;;;;15.68;7.07;;;;;;;13.32;58.87;99453.28;5099706;28;20045;-76
2021/04/28 00:24:05;;;;;;;11.18;6.43;;;;;;;13.30;59.37;99455.28;5101218;28;20031;-76
2021/04/28 00:26:30;;;;;;;12.18;7.70;;;;;;;13.18;59.24;99466.59;5102543;28;20110;-74
2021/04/28 00:28:55;;;;;;;11.63;7.18;;;;;;;13.19;58.52;99458.44;5099984;28;20043;-74
2021/04/28 00:31:21;;;;;;;14.27;6.93;;;;;;;13.20;58.76;99470.72;5100357;28;20053;-74
2021/04/28 00:33:47;;;;;;;15.57;8.10;;;;;;;13.23;59.16;99472.19;5098283;28;20035;-74
2021/04/28 00:36:12;;;;;;;13.20;7.70;;;;;;;13.21;58.52;99474.19;5101333;28;20028;-74
2021/04/28 00:38:38;;;;;;;19.27;8.85;;;;;;;13.24;58.94;99485.28;5098244;28;20058;-74
2021/04/28 00:41:08;;;;;;;16.05;8.20;;;;;;;13.22;58.47;99470.53;5100951;28;20052;-74
2021/04/28 00:43:35;;;;;;;13.77;8.25;;;;;;;13.30;58.23;99478.41;5098624;28;20043;-74
2021/04/28 00:46:01;;;;;;;18.38;8.55;;;;;;;13.23;58.33;99485.47;5103188;28;20020;-74
2021/04/28 00:48:26;;;;;;;17.42;8.95;;;;;;;13.19;58.11;99481.53;5100952;28;20314;-74
2021/04/28 00:50:52;;;;;;;15.80;9.02;;;;;;;13.04;58.73;99490.31;5099856;28;20035;-74
2021/04/28 00:53:20;;;;;;;17.90;9.40;;;;;;;13.01;59.16;99481.88;5100566;28;20217;-74
2021/04/28 00:55:47;;;;;;;18.02;9.60;;;;;;;13.05;59.23;99489.31;5099183;28;20200;-74
2021/04/28 00:58:13;;;;;;;25.13;10.15;;;;;;;12.86;59.11;99473.91;5101106;28;20043;-74
2021/04/28 01:00:41;;;;;;;19.17;9.43;;;;;;;12.89;59.35;99470.06;5103052;28;20047;-76
2021/04/28 01:03:07;;;;;;;17.98;9.32;;;;;;;13.01;59.67;99490.69;5110240;28;20040;-76
2021/04/28 01:05:33;;;;;;;20.77;9.73;;;;;;;13.00;59.27;99483.72;5120716;28;20028;-76
2021/04/28 01:07:59;;;;;;;16.20;9.95;;;;;;;12.93;58.77;99479.31;5110770;28;20035;-74
2021/04/28 01:10:30;;;;;;;23.95;10.43;;;;;;;12.98;59.69;99484.91;5116011;28;20036;-74
2021/04/28 01:12:56;;;;;;;16.48;9.13;;;;;;;12.98;59.72;99482.25;5102997;28;20039;-74
2021/04/28 01:15:31;;;;;;;15.80;9.93;;;;;;;13.10;59.91;99486.09;5103883;28;20028;-74
2021/04/28 01:17:58;;;;;;;19.70;9.75;;;;;;;12.92;59.85;99475.00;5104162;28;20031;-74
2021/04/28 01:20:25;;;;;;;20.80;9.93;;;;;;;12.96;59.50;99469.16;5102146;28;20041;-74
2021/04/28 01:22:51;;;;;;;24.50;10.63;;;;;;;12.80;59.79;99453.38;5102645;28;20042;-74
2021/04/28 01:25:20;;;;;;;20.15;9.95;;;;;;;12.71;60.60;99462.47;5104580;28;20028;-74
2021/04/28 01:27:54;;;;;;;20.02;10.50;;;;;;;12.62;60.31;99453.75;5103411;28;20032;-74
2021/04/28 01:30:21;;;;;;;18.50;11.40;;;;;;;12.56;60.93;99472.25;5103582;28;20238;-74
2021/04/28 01:32:50;;;;;;;18.60;10.73;;;;;;;12.51;61.21;99477.28;5102090;28;20277;-74
2021/04/28 01:35:18;;;;;;;20.77;10.63;;;;;;;12.51;61.55;99480.75;5103688;28;20031;-74
2021/04/28 01:37:45;;;;;;;22.98;10.95;;;;;;;12.56;60.98;99488.19;5103338;28;20314;-74
2021/04/28 01:40:17;;;;;;;17.48;10.88;;;;;;;12.45;61.44;99481.44;5101550;28;20016;-74
2021/04/28 01:42:44;;;;;;;25.27;11.80;;;;;;;12.45;61.43;99490.25;5103680;28;20036;-74
2021/04/28 01:45:12;;;;;;;18.73;11.43;;;;;;;12.46;62.01;99483.09;5102084;28;20034;-76
2021/04/28 01:47:39;;;;;;;18.00;10.93;;;;;;;12.42;61.39;99485.28;5106316;28;20047;-76
2021/04/28 01:50:06;;;;;;;23.40;12.30;;;;;;;12.03;62.48;99464.22;5103030;28;20283;-76
2021/04/28 01:52:32;;;;;;;21.77;12.73;;;;;;;12.18;62.56;99479.38;5101720;28;20016;-74
2021/04/28 01:54:58;;;;;;;21.83;12.13;;;;;;;12.32;62.41;99486.53;5102543;28;20031;-74
2021/04/28 01:57:26;;;;;;;22.35;12.30;;;;;;;12.44;61.79;99477.97;5103846;28;20024;-74
2021/04/28 01:59:51;;;;;;;28.15;13.23;;;;;;;12.39;62.81;99482.16;5102263;28;20048;-74
2021/04/28 02:02:18;;;;;;;20.10;12.52;;;;;;;12.28;63.31;99474.63;5103081;28;20352;-74
2021/04/28 02:04:43;;;;;;;21.73;11.45;;;;;;;12.31;62.81;99475.09;5103665;28;20035;-74
2021/04/28 02:07:10;;;;;;;22.27;12.07;;;;;;;12.28;62.91;99474.63;5102254;28;20360;-74
2021/04/28 02:09:36;;;;;;;21.38;12.85;;;;;;;12.18;63.86;99468.75;5103022;28;20028;-74
2021/04/28 02:12:02;;;;;;;24.35;13.05;;;;;;;12.22;63.54;99462.06;5101176;28;20057;-74
2021/04/28 02:14:30;;;;;;;21.85;12.45;;;;;;;12.20;63.01;99472.06;5101893;28;20052;-74
2021/04/28 02:16:56;;;;;;;21.30;11.75;;;;;;;12.12;63.35;99473.78;5103459;28;20031;-74
2021/04/28 02:19:22;;;;;;;20.98;12.77;;;;;;;12.15;63.22;99477.91;5102277;28;20091;-74
2021/04/28 02:21:50;;;;;;;27.27;12.27;;;;;;;12.04;64.81;99484.44;5102906;28;20030;-74
2021/04/28 02:24:16;;;;;;;25.75;13.15;;;;;;;11.92;65.35;99477.09;5102792;28;20020;-74
2021/04/28 02:26:43;;;;;;;23.35;12.30;;;;;;;11.82;65.34;99478.13;5101836;28;20039;-76
2021/04/28 02:29:09;;;;;;;17.80;12.32;;;;;;;11.79;65.59;99472.38;5101913;28;20024;-76
2021/04/28 02:31:36;;;;;;;24.23;13.13;;;;;;;11.69;66.31;99464.59;5102753;28;20214;-75
2021/04/28 02:34:03;;;;;;;23.17;13.80;;;;;;;11.82;66.07;99482.63;5101759;28;20312;-74
2021/04/28 02:36:33;;;;;;;21.50;13.02;;;;;;;11.91;65.66;99478.09;5103553;28;20031;-74
2021/04/28 02:39:03;;;;;;;19.42;12.70;;;;;;;11.95;65.47;99474.06;5100677;28;20027;-74
2021/04/28 02:41:29;;;;;;;21.17;12.82;;;;;;;12.00;64.96;99477.84;5103743;28;20027;-74
2021/04/28 02:43:57;;;;;;;23.83;13.65;;;;;;;12.03;64.51;99476.66;5102959;28;20039;-74
2021/04/28 02:46:25;;;;;;;35.00;14.50;;;;;;;11.87;65.34;99482.09;5102265;28;20042;-74
2021/04/28 02:48:52;;;;;;;29.08;14.40;;;;;;;11.61;66.02;99485.03;5103697;28;20042;-74
2021/04/28 02:51:17;;;;;;;24.73;14.65;;;;;;;11.76;65.52;99494.72;5102033;28;20043;-74
2021/04/28 02:53:45;;;;;;;27.83;14.63;;;;;;;11.80;66.27;99503.19;5102035;28;20032;-74
2021/04/28 02:56:12;;;;;;;23.48;14.50;;;;;;;11.92;65.06;99508.91;5102242;28;20087;-74
2021/04/28 02:58:39;;;;;;;29.25;15.20;;;;;;;11.91;65.21;99497.47;5102527;28;20039;-74
2021/04/28 03:01:05;;;;;;;24.63;14.38;;;;;;;11.93;65.00;99516.69;5102566;28;20049;-74
2021/04/28 03:03:34;;;;;;;29.10;15.32;;;;;;;12.00;64.93;99524.78;5100512;28;20039;-74
2021/04/28 03:06:00;;;;;;;27.02;14.82;;;;;;;12.07;65.30;99515.94;5101329;28;20028;-74
2021/04/28 03:08:25;;;;;;;27.55;15.38;;;;;;;12.15;64.43;99515.88;5103360;28;20187;-74
2021/04/28 03:10:51;;;;;;;26.48;15.68;;;;;;;12.04;65.16;99521.59;5100740;28;20149;-76
2021/04/28 03:13:18;;;;;;;28.17;15.52;;;;;;;11.95;65.79;99519.19;5101136;28;20040;-75
2021/04/28 03:15:44;;;;;;;31.50;16.98;;;;;;;11.79;67.13;99526.25;5119541;27;20027;-75
2021/04/28 03:18:11;;;;;;;29.92;16.20;;;;;;;11.62;68.05;99524.66;5101453;28;20087;-74
2021/04/28 03:20:40;;;;;;;31.02;17.08;;;;;;;11.49;68.23;99521.75;5100899;28;20027;-74
2021/04/28 03:23:07;;;;;;;29.80;16.90;;;;;;;11.36;69.18;99529.38;5113557;28;20028;-74
2021/04/28 03:25:32;;;;;;;32.30;18.15;;;;;;;11.23;70.60;99527.28;5101591;28;20194;-74
2021/04/28 03:27:58;;;;;;;31.77;17.90;;;;;;;11.17;70.96;99535.91;5100083;28;20028;-74
2021/04/28 03:30:24;;;;;;;30.17;17.15;;;;;;;11.15;71.54;99524.66;5103107;28;20077;-74
2021/04/28 03:32:49;;;;;;;35.25;17.70;;;;;;;11.12;71.86;99536.44;5100634;28;20043;-74
2021/04/28 03:35:14;;;;;;;33.58;18.55;;;;;;;11.04;72.84;99546.22;5100264;28;20024;-74
2021/04/28 03:37:40;;;;;;;37.20;18.65;;;;;;;11.04;73.05;99538.28;5101768;28;20038;-74
2021/04/28 03:40:07;;;;;;;32.35;18.38;;;;;;;10.98;73.29;99549.56;5101001;28;20024;-74
2021/04/28 03:42:33;;;;;;;32.45;17.67;;;;;;;11.07;73.52;99552.03;5101854;28;20102;-76
2021/04/28 03:44:59;;;;;;;32.47;17.80;;;;;;;11.12;73.53;99556.81;5100465;28;20073;-74
2021/04/28 03:47:25;;;;;;;39.40;18.40;;;;;;;11.07;73.49;99559.97;5101473;28;20038;-74
2021/04/28 03:49:51;;;;;;;33.17;18.67;;;;;;;11.06;74.35;99565.44;5100901;28;20048;-74
2021/04/28 03:52:16;;;;;;;32.95;19.08;;;;;;;11.14;73.73;99557.47;5100386;28;20032;-74
2021/04/28 03:54:42;;;;;;;35.30;18.55;;;;;;;11.24;73.63;99560.75;5101591;28;20063;-74
2021/04/28 03:57:08;;;;;;;34.03;18.42;;;;;;;11.09;74.61;99563.28;5101024;28;20035;-74
2021/04/28 03:59:35;;;;;;;33.33;18.90;;;;;;;11.11;74.58;99566.59;5101187;28;20046;-74
2021/04/28 04:02:00;;;;;;;37.97;19.10;;;;;;;11.15;75.03;99572.38;5099534;28;20052;-74
2021/04/28 04:04:25;;;;;;;33.47;18.17;;;;;;;11.16;74.83;99580.16;5100427;28;20245;-74
2021/04/28 04:06:51;;;;;;;34.50;19.60;;;;;;;11.10;75.55;99580.81;5101356;28;20258;-74
2021/04/28 04:09:16;;;;;;;33.38;19.88;;;;;;;11.14;76.13;99576.84;5102205;28;20051;-74
2021/04/28 04:11:42;;;;;;;36.53;19.67;;;;;;;11.18;75.80;99585.28;5100965;28;20225;-76
2021/04/28 04:14:07;;;;;;;32.20;18.88;;;;;;;11.20;76.06;99570.84;5101380;28;20054;-76
2021/04/28 04:16:33;;;;;;;34.95;19.25;;;;;;;11.27;75.89;99583.44;5100632;28;20036;-74
2021/04/28 04:18:58;;;;;;;37.55;19.77;;;;;;;11.23;76.59;99598.03;5101510;28;20317;-74
2021/04/28 04:21:24;;;;;;;38.13;19.90;;;;;;;11.28;76.55;99603.63;5099277;28;20024;-74
2021/04/28 04:23:49;;;;;;;30.95;18.30;;;;;;;11.38;76.65;99609.56;5100462;28;20405;-74
2021/04/28 04:26:15;;;;;;;39.00;20.10;;;;;;;11.27;76.92;99609.94;5099561;28;20039;-74
2021/04/28 04:28:41;;;;;;;35.05;19.25;;;;;;;11.44;76.50;99612.41;5099943;28;20028;-74
2021/04/28 04:31:06;;;;;;;31.85;18.92;;;;;;;11.42;76.41;99621.50;5102053;28;20016;-74
2021/04/28 04:33:32;;;;;;;36.45;18.92;;;;;;;11.50;76.54;99635.59;5099456;28;20027;-74
2021/04/28 04:35:57;;;;;;;44.15;19.77;;;;;;;11.41;76.83;99614.53;5100217;28;20028;-74
2021/04/28 04:38:23;;;;;;;35.95;18.70;;;;;;;11.51;76.71;99631.94;5104629;28;20036;-74
2021/04/28 04:40:48;;;;;;;33.80;18.70;;;;;;;11.53;77.29;99639.72;5104458;28;20237;-74
2021/04/28 04:43:14;;;;;;;34.50;18.40;;;;;;;11.64;77.12;99646.47;5103187;28;20031;-74
2021/04/28 04:45:39;;;;;;;36.55;19.48;;;;;;;11.62;76.65;99656.44;5104682;28;20343;-74
2021/04/28 04:48:07;;;;;;;34.85;19.92;;;;;;;11.58;77.60;99655.13;5102721;28;20035;-74
2021/04/28 04:50:37;;;;;;;37.10;19.35;;;;;;;11.73;77.09;99656.88;5104828;28;20138;-74
2021/04/28 04:53:04;;;;;;;39.08;20.23;;;;;;;11.89;77.14;99656.03;5104072;28;20036;-74
2021/04/28 04:55:29;;;;;;;33.33;19.17;;;;;;;12.00;76.74;99662.78;5104285;28;20032;-76
2021/04/28 04:57:55;;;;;;;32.47;17.30;;;;;;;12.09;75.88;99670.53;5102555;28;20023;-76
2021/04/28 05:00:22;;;;;;;30.48;17.73;;;;;;;12.35;75.03;99672.03;5107910;28;20048;-74
2021/04/28 05:02:47;;;;;;;33.58;17.52;;;;;;;12.49;74.07;99667.84;5107697;28;20222;-74
2021/04/28 05:05:14;;;;;;;35.67;19.60;;;;;;;12.34;74.46;99671.22;5111730;28;20035;-75
2021/04/28 05:07:40;;;;;;;34.28;18.60;;;;;;;12.48;74.23;99677.59;5120814;28;20024;-74
2021/04/28 05:10:07;;;;;;;31.65;16.92;;;;;;;12.61;74.05;99675.22;5118370;28;20323;-74
2021/04/28 05:12:33;;;;;;;29.40;17.02;;;;;;;12.58;74.48;99680.88;5114241;28;20226;-74
2021/04/28 05:14:58;;;;;;;27.50;16.00;;;;;;;12.86;72.81;99685.66;5117442;28;20028;-74
2021/04/28 05:17:24;;;;;;;27.58;15.82;;;;;;;13.29;71.14;99687.66;5108462;28;20073;-74
2021/04/28 05:19:50;;;;;;;25.75;14.32;;;;;;;13.31;70.35;99682.16;5115110;28;20100;-74
2021/04/28 05:22:15;;;;;;;25.02;13.13;;;;;;;13.35;70.11;99689.59;5124638;28;20068;-74
2021/04/28 05:24:40;;;;;;;25.08;13.15;;;;;;;13.11;71.51;99698.56;5110982;28;20316;-74
2021/04/28 05:27:06;;;;;;;25.58;13.30;;;;;;;13.24;70.90;99703.31;5107960;28;20032;-74
2021/04/28 05:29:32;;;;;;;28.50;12.63;;;;;;;13.47;71.62;99705.91;5103075;28;20035;-74
2021/04/28 05:31:57;;;;;;;21.83;12.20;;;;;;;13.32;70.49;99707.72;5102655;28;20023;-75
2021/04/28 05:34:24;;;;;;;20.60;11.35;;;;;;;13.38;70.24;99694.53;5103515;28;20047;-76
2021/04/28 05:36:50;;;;;;;21.38;12.52;;;;;;;13.48;69.80;99701.44;5102234;28;20016;-76
2021/04/28 05:39:15;;;;;;;21.70;11.80;;;;;;;13.68;69.59;99710.56;5103330;28;20209;-74
2021/04/28 05:41:41;;;;;;;23.23;12.27;;;;;;;13.83;69.46;99707.91;5103621;28;20226;-74
2021/04/28 05:44:06;;;;;;;21.67;10.55;;;;;;;13.41;68.82;99702.16;5103059;28;20065;-75
2021/04/28 05:46:32;;;;;;;23.00;12.15;;;;;;;13.27;70.59;99707.44;5103651;28;20047;-74
2021/04/28 05:48:58;;;;;;;20.90;11.63;;;;;;;13.28;70.48;99728.53;5102811;28;20305;-74
2021/04/28 05:51:23;;;;;;;25.48;12.45;;;;;;;13.21;70.86;99716.97;5103527;28;20027;-74
2021/04/28 05:53:49;;;;;;;24.50;11.25;;;;;;;13.20;70.62;99711.84;5102816;28;20054;-74
2021/04/28 05:56:14;;;;;;;19.38;12.18;;;;;;;13.64;69.25;99723.41;5102818;28;20035;-74
2021/04/28 05:58:40;;;;;;;19.85;11.40;;;;;;;13.58;68.24;99723.31;5102548;28;20091;-75
2021/04/28 06:01:06;;;;;;;24.08;13.20;;;;;;;13.60;69.96;99721.28;5103553;28;20070;-74
2021/04/28 06:03:31;;;;;;;29.33;14.45;;;;;;;13.93;68.38;99697.78;5101643;28;20114;-75
2021/04/28 06:05:56;;;;;;;23.05;13.25;;;;;;;14.10;68.18;99709.91;5102480;28;20048;-74
2021/04/28 06:08:22;;;;;;;22.58;13.75;;;;;;;13.88;69.37;99716.16;5101813;28;20371;-75
2021/04/28 06:10:48;;;;;;;25.45;16.50;;;;;;;13.82;69.19;99712.41;5103703;28;20220;-75
2021/04/28 06:13:13;;;;;;;28.55;17.73;;;;;;;14.06;68.93;99696.13;5102647;28;20031;-74
2021/04/28 06:15:39;;;;;;;25.13;14.88;;;;;;;14.13;68.89;99696.22;5101747;28;20043;-75
2021/04/28 06:18:06;;;;;;;22.48;15.00;;;;;;;14.15;68.02;99702.19;5103049;28;20047;-76
2021/04/28 06:20:33;;;;;;;25.65;15.85;;;;;;;14.16;67.41;99690.50;5101449;28;20095;-74
2021/04/28 06:23:00;;;;;;;23.27;13.63;;;;;;;14.41;65.87;99688.34;5102955;28;20242;-74
2021/04/28 06:25:26;;;;;;;26.67;13.45;;;;;;;14.31;66.30;99688.66;5100640;28;20031;-74
2021/04/28 06:27:51;;;;;;;28.13;15.88;;;;;;;14.54;67.16;99720.50;5102120;28;20062;-74
2021/04/28 06:30:17;;;;;;;28.85;17.58;;;;;;;13.77;67.71;99696.16;5102718;28;20089;-74
2021/04/28 06:32:43;;;;;;;27.75;16.30;;;;;;;13.87;68.64;99718.00;5102464;28;20366;-74
2021/04/28 06:35:10;;;;;;;26.20;15.13;;;;;;;13.84;68.20;99720.19;5108318;28;20065;-74
2021/04/28 06:37:36;;;;;;;23.48;14.95;;;;;;;13.77;69.40;99714.78;5120424;28;20036;-74
2021/04/28 06:40:06;;;;;;;28.38;15.18;;;;;;;14.17;68.74;99716.13;5116830;28;20044;-74
2021/04/28 06:42:32;;;;;;;25.88;14.63;;;;;;;14.25;67.21;99723.19;5114677;28;20094;-74
2021/04/28 06:44:57;;;;;;;22.23;13.95;;;;;;;14.15;67.60;99717.34;5112903;28;20262;-74
2021/04/28 06:47:23;;;;;;;25.02;13.75;;;;;;;14.17;67.52;99737.44;5115968;28;20089;-74
2021/04/28 06:49:49;;;;;;;22.95;14.32;;;;;;;14.30;66.46;99729.63;5112904;28;20052;-75
2021/04/28 06:52:15;;;;;;;25.63;14.07;;;;;;;14.26;67.63;99741.66;5113370;27;20027;-74
2021/04/28 06:54:40;;;;;;;28.55;14.43;;;;;;;14.31;66.20;99733.09;5113512;28;20222;-74
2021/04/28 06:57:06;;;;;;;22.80;14.80;;;;;;;14.44;66.82;99729.81;5111979;28;20440;-76
2021/04/28 06:59:31;;;;;;;24.42;14.05;;;;;;;14.48;66.42;99723.91;5112228;28;20052;-77
2021/04/28 07:01:57;;;;;;;24.52;14.93;;;;;;;14.66;66.62;99736.84;5113290;28;20031;-74
2021/04/28 07:04:22;;;;;;;32.10;15.30;;;;;;;14.82;66.32;99733.13;5114529;28;20051;-75
2021/04/28 07:06:48;;;;;;;21.85;13.10;;;;;;;15.28;63.43;99728.22;5116561;28;20031;-74
2021/04/28 07:09:14;;;;;;;23.25;12.88;;;;;;;15.36;62.66;99730.75;5119537;28;20094;-74
2021/04/28 07:11:40;;;;;;;22.48;12.85;;;;;;;15.63;62.55;99729.97;5121542;28;20036;-75
2021/04/28 07:14:05;;;;;;;25.55;11.93;;;;;;;16.22;59.81;99723.31;5120911;28;20349;-75
2021/04/28 07:16:31;;;;;;;23.02;12.88;;;;;;;16.15;59.23;99720.63;5121802;28;20314;-75
2021/04/28 07:18:56;;;;;;;21.30;12.13;;;;;;;16.14;59.08;99716.28;5118364;28;20369;-75
2021/04/28 07:21:22;;;;;;;17.00;11.20;;;;;;;16.13;59.22;99725.34;5121001;27;20314;-74
2021/04/28 07:23:48;;;;;;;22.17;12.60;;;;;;;16.06;60.80;99726.31;5119690;28;20043;-76
2021/04/28 07:26:13;;;;;;;20.17;11.60;;;;;;;15.87;61.63;99723.34;5120635;28;20072;-77
2021/04/28 07:28:39;;;;;;;20.10;11.60;;;;;;;15.82;61.42;99732.97;5119853;28;20102;-75
2021/04/28 07:31:05;;;;;;;15.75;10.32;;;;;;;16.02;59.69;99722.41;5121916;28;20062;-74
2021/04/28 07:33:31;;;;;;;19.88;11.48;;;;;;;16.28;60.00;99723.34;5121004;28;20273;-75
2021/04/28 07:35:56;;;;;;;48.20;14.57;;;;;;;16.81;58.00;99712.88;5121421;28;20047;-75
2021/04/28 07:38:22;;;;;;;19.33;10.80;;;;;;;16.77;57.72;99716.97;5119345;28;20031;-75
2021/04/28 07:40:47;;;;;;;17.65;10.57;;;;;;;16.78;57.71;99715.13;5120455;28;20325;-75
2021/04/28 07:43:13;;;;;;;15.98;10.30;;;;;;;16.64;56.96;99718.72;5120206;28;20043;-74
2021/04/28 07:45:39;;;;;;;15.32;10.18;;;;;;;17.04;56.47;99727.72;5121423;28;20043;-75
2021/04/28 07:48:08;;;;;;;18.17;11.27;;;;;;;17.11;57.63;99715.16;5121826;28;20035;-77
2021/04/28 07:50:38;;;;;;;18.00;10.60;;;;;;;17.46;55.52;99715.78;5120031;28;20026;-77
2021/04/28 07:53:05;;;;;;;19.48;11.00;;;;;;;17.63;55.74;99722.34;5121559;28;20072;-75
2021/04/28 07:55:31;;;;;;;17.98;10.70;;;;;;;17.14;56.99;99714.75;5120057;28;20032;-74
2021/04/28 07:57:57;;;;;;;22.08;11.82;;;;;;;17.12;56.83;99711.47;5121272;28;20306;-74
2021/04/28 08:00:23;;;;;;;15.70;11.82;;;;;;;17.67;54.60;99709.41;5120367;28;20049;-74
2021/04/28 08:02:48;;;;;;;19.38;10.20;;;;;;;17.76;54.97;99729.59;5121537;28;20040;-75
2021/04/28 08:05:14;;;;;;;21.90;11.98;;;;;;;17.40;56.79;99724.63;5120075;28;20051;-74
2021/04/28 08:07:39;;;;;;;17.65;12.00;;;;;;;17.52;56.73;99722.97;5121193;28;20023;-75
2021/04/28 08:10:06;;;;;;;18.90;11.68;;;;;;;17.48;55.27;99716.41;5119930;28;20054;-75
2021/04/28 08:12:32;;;;;;;17.95;11.48;;;;;;;17.68;54.77;99716.41;5125151;28;20329;-75
2021/04/28 08:14:58;;;;;;;18.15;11.82;;;;;;;18.04;54.34;99714.06;5123952;28;20344;-75
2021/04/28 08:17:23;;;;;;;19.35;12.07;;;;;;;18.11;54.96;99720.22;5126051;27;20023;-75
2021/04/28 08:19:49;;;;;;;17.75;11.55;;;;;;;17.79;55.76;99721.16;5125176;28;20031;-75
2021/04/28 08:22:14;;;;;;;17.45;11.10;;;;;;;17.67;55.38;99712.06;5121941;28;20035;-74
2021/04/28 08:24:39;;;;;;;16.30;11.30;;;;;;;18.16;54.36;99715.06;5122476;28;20215;-74
2021/04/28 08:27:05;;;;;;;18.13;9.55;;;;;;;18.01;52.99;99713.69;5123951;28;20317;-75
2021/04/28 08:29:31;;;;;;;13.38;10.27;;;;;;;17.83;55.78;99717.84;5124004;28;20187;-75
2021/04/28 08:31:57;;;;;;;14.30;11.02;;;;;;;17.92;54.12;99694.31;5124474;28;20218;-76
2021/04/28 08:34:22;;;;;;;18.38;11.10;;;;;;;17.81;54.19;99694.97;5124253;28;20035;-75
2021/04/28 08:36:48;;;;;;;17.58;12.55;;;;;;;18.13;53.82;99701.25;5124760;28;20035;-75
2021/04/28 08:39:13;;;;;;;15.63;10.13;;;;;;;18.01;53.47;99702.97;5123585;27;20244;-75
2021/04/28 08:41:39;;;;;;;22.83;11.20;;;;;;;18.34;55.25;99697.47;5123711;28;20039;-75
2021/04/28 08:44:06;;;;;;;16.90;10.98;;;;;;;18.48;53.50;99704.41;5123435;28;20233;-75
2021/04/28 08:46:32;;;;;;;16.90;9.95;;;;;;;18.29;52.91;99698.09;5124802;28;20027;-75
2021/04/28 08:48:58;;;;;;;25.67;10.75;;;;;;;18.12;54.49;99697.75;5124347;28;20185;-75
2021/04/28 08:51:23;;;;;;;15.45;9.65;;;;;;;18.47;53.91;99684.81;5125130;28;20030;-75
2021/04/28 08:53:50;;;;;;;16.90;11.27;;;;;;;18.21;56.07;99686.81;5123700;28;20052;-74
2021/04/28 08:56:16;;;;;;;13.65;10.35;;;;;;;18.39;52.82;99682.38;5122632;28;20031;-75
2021/04/28 08:58:41;;;;;;;19.15;10.82;;;;;;;18.38;54.19;99683.41;5122629;28;20132;-75
2021/04/28 09:01:07;;;;;;;15.20;9.43;;;;;;;17.79;52.60;99687.16;5121813;28;20104;-75
2021/04/28 09:03:39;;;;;;;16.52;10.75;;;;;;;17.60;56.47;99693.31;5122526;27;20085;-74
2021/04/28 09:06:34;;;;;;;29.40;10.57;;;;;;;17.99;56.16;99671.03;5118708;27;20225;-74
2021/04/28 09:09:07;;;;;;;17.52;11.45;;;;;;;18.38;55.08;99667.34;5113362;28;20023;-75
2021/04/28 09:11:48;;;;;;;17.67;10.73;;;;;;;18.83;54.43;99671.88;5115328;28;20024;-76
2021/04/28 09:14:18;;;;;;;17.55;10.98;;;;;;;18.85;55.22;99675.16;5112862;28;20031;-76
2021/04/28 09:16:55;;;;;;;24.35;10.60;;;;;;;19.01;51.58;99671.94;5116516;28;20214;-75
2021/04/28 09:19:26;;;;;;;17.25;9.98;;;;;;;19.39;51.40;99669.13;5118370;28;20063;-75
2021/04/28 09:21:59;;;;;;;13.77;8.00;;;;;;;18.94;50.75;99668.47;5122382;28;20031;-75
2021/04/28 09:24:34;;;;;;;15.67;9.30;;;;;;;18.69;53.81;99671.94;5123599;27;20058;-75
2021/04/28 09:27:01;;;;;;;31.60;11.73;;;;;;;18.69;57.04;99661.19;5120461;27;20052;-75
2021/04/28 09:29:28;;;;;;;19.27;10.30;;;;;;;18.57;54.81;99656.72;5118501;28;20036;-76
2021/04/28 09:31:56;;;;;;;13.38;9.40;;;;;;;18.85;52.38;99657.19;5112487;28;20032;-75
2021/04/28 09:34:39;;;;;;;16.40;9.07;;;;;;;18.98;51.35;99653.59;5119160;28;20381;-76
2021/04/28 09:37:15;;;;;;;23.48;10.75;;;;;;;18.79;52.92;99647.34;5121737;28;20315;-75
2021/04/28 09:39:48;;;;;;;13.70;9.35;;;;;;;19.02;53.19;99647.56;5112521;28;20039;-75
2021/04/28 09:42:19;;;;;;;16.87;9.67;;;;;;;18.80;53.83;99630.19;5111941;28;20016;-75
2021/04/28 09:44:48;;;;;;;15.00;7.40;;;;;;;18.95;51.29;99629.88;5115934;28;20480;-75
2021/04/28 09:47:20;;;;;;;18.70;9.88;;;;;;;18.77;54.92;99626.09;5112193;28;20024;-75
2021/04/28 09:49:48;;;;;;;16.05;9.13;;;;;;;18.91;54.79;99640.22;5114798;28;20334;-76
2021/04/28 09:52:36;;;;;;;22.58;7.97;;;;;;;19.04;52.68;99644.66;5111726;28;20324;-77
2021/04/28 09:55:05;;;;;;;18.05;7.53;;;;;;;18.79;52.83;99644.66;5103425;27;20416;-75
2021/04/28 09:57:38;;;;;;;12.88;6.75;;;;;;;18.64;53.02;99623.47;5110172;28;20023;-75
2021/04/28 10:00:14;;;;;;;13.73;6.68;;;;;;;18.79;50.34;99626.69;5112202;28;20031;-75
2021/04/28 10:02:41;;;;;;;13.90;6.20;;;;;;;18.77;51.19;99620.72;5115215;28;20036;-75
2021/04/28 10:05:33;;;;;;;12.93;6.45;;;;;;;18.58;50.16;99634.22;5113633;28;20277;-75
2021/04/28 10:08:16;;;;;;;15.90;6.38;;;;;;;18.32;51.78;99619.13;5116220;28;20027;-76
2021/04/28 10:10:57;;;;;;;11.07;5.47;;;;;;;18.46;52.11;99615.31;5116634;28;20023;-75
2021/04/28 10:13:22;;;;;;;9.45;5.78;;;;;;;18.41;50.07;99620.50;5122513;27;20027;-75
2021/04/28 10:15:48;;;;;;;11.43;6.10;;;;;;;18.22;50.08;99616.09;5117896;28;20068;-75
2021/04/28 10:18:15;;;;;;;17.60;7.10;;;;;;;18.35;51.10;99605.28;5114846;28;20036;-76
2021/04/28 10:20:43;;;;;;;15.98;6.10;;;;;;;18.54;50.97;99606.19;5112991;27;20103;-75
2021/04/28 10:23:11;;;;;;;8.82;5.13;;;;;;;18.53;50.26;99591.97;5113495;27;20099;-76
2021/04/28 10:25:38;;;;;;;13.30;5.90;;;;;;;18.72;50.89;99585.66;5110596;28;20355;-75
2021/04/28 10:28:06;;;;;;;9.18;5.20;;;;;;;18.90;50.11;99589.47;5114009;28;20207;-75
2021/04/28 10:30:36;;;;;;;15.85;5.70;;;;;;;18.99;49.22;99586.28;5117700;27;20024;-77
2021/04/28 10:33:05;;;;;;;11.90;4.95;;;;;;;18.87;49.59;99593.41;5111005;28;20248;-76
2021/04/28 10:35:32;;;;;;;13.80;5.20;;;;;;;19.02;48.66;99585.84;5111367;27;20023;-75
2021/04/28 10:37:59;;;;;;;11.25;5.80;;;;;;;19.06;50.02;99589.72;5114626;27;20032;-75
2021/04/28 10:40:25;;;;;;;11.27;5.38;;;;;;;18.98;49.21;99581.97;5111077;28;20061;-75
2021/04/28 10:42:51;;;;;;;8.98;6.15;;;;;;;19.09;49.93;99573.19;5115260;28;20098;-75
2021/04/28 10:45:22;;;;;;;9.15;5.70;;;;;;;19.20;50.21;99574.31;5112204;28;20063;-76
2021/04/28 10:47:55;;;;;;;8.32;4.78;;;;;;;19.11;47.14;99587.22;5114559;28;20100;-75
2021/04/28 10:50:35;;;;;;;11.15;5.00;;;;;;;18.96;47.94;99583.22;5112813;28;20031;-75
2021/04/28 10:53:17;;;;;;;12.23;5.15;;;;;;;19.05;48.04;99572.00;5120442;28;20072;-75
2021/04/28 10:56:04;;;;;;;9.05;4.63;;;;;;;19.06;49.68;99575.50;5121481;28;20090;-75
2021/04/28 10:58:30;;;;;;;12.85;4.90;;;;;;;19.28;48.82;99562.47;5114991;28;20229;-74
2021/04/28 11:01:07;;;;;;;9.27;4.72;;;;;;;19.50;48.50;99569.03;5120684;28;20047;-75
2021/04/28 11:03:41;;;;;;;9.75;4.85;;;;;;;19.32;49.07;99569.03;5120823;28;20031;-75
2021/04/28 11:09:07;;;;;;;68.45;8.07;;;;;;;19.80;47.21;99550.34;5120274;28;20031;-75
2021/04/28 11:16:51;;;;;;;12.63;4.75;;;;;;;19.57;47.40;99529.53;5121316;28;20385;-75
2021/04/28 11:19:35;;;;;;;11.55;5.15;;;;;;;19.91;49.73;99538.81;5120868;28;20043;-75
2021/04/28 11:22:07;;;;;;;11.30;5.13;;;;;;;19.88;48.81;99527.72;5118909;28;20106;-75
2021/04/28 11:25:16;;;;;;;12.27;4.68;;;;;;;19.90;48.10;99523.75;5120062;28;20046;-75
2021/04/28 11:28:00;;;;;;;12.50;4.57;;;;;;;19.70;49.27;99523.16;5118689;27;20031;-75
2021/04/28 11:30:30;;;;;;;8.15;4.45;;;;;;;19.81;47.65;99522.44;5120510;28;20033;-74